e-Mail: Password: Lost your password? Click here. - Register a new user

c h a v e z j u a r e z . c o m

Weather - Tiempo - Wetter - Temps

METAR DATA MMMX (Mexico City)

Mexico City / Licenci, Mexico (MMMX) 19-26N 099-06W
Apr 25, 2018 - 07:42 AM EDT / 2018.04.25 1142 UTC
Wind: from the N (360 degrees) at 6 MPH (5 KT):0
Visibility: 7 mile(s):0
Sky conditions: mostly clear
Temperature: 57 F (14 C)
Dew Point: 50 F (10 C)
Relative Humidity: 76%
Pressure (altimeter): 30.36 in. Hg (1028 hPa)
ob: MMMX 251142Z 36005KT 7SM FEW080 14/10 A3036 NOSIG RMK 8/030 HZY SC
cycle: 11

Mexico City

St. Prex




Current weather alarms for Switzerland


www.wetteralarm.ch